Time;durP1;ratioP1;P1;durP2;ratioP2;P2;SDS_P1;SDS_P2;PMS_P1;PMS_P2;Temp;Humidity;BMP_temperature;BMP_pressure;BME280_temperature;BME280_humidity;BME280_pressure;Samples;Min_cycle;Max_cycle;Signal;HPM_P1;HPM_P2
2022/11/02 00:01:24;;;;;;;23.92;14.00;;;;;;;14.76;65.32;100610.88;4973417;28;97031;-77
2022/11/02 00:03:50;;;;;;;24.77;14.65;;;;;;;14.74;65.38;100610.09;4978896;28;96922;-84
2022/11/02 00:06:16;;;;;;;18.23;13.45;;;;;;;14.65;65.62;100596.38;4972914;28;101205;-77
2022/11/02 00:08:41;;;;;;;21.27;14.68;;;;;;;14.60;65.36;100601.03;4955147;28;101465;-78
2022/11/02 00:11:07;;;;;;;18.42;13.88;;;;;;;14.60;65.50;100608.97;4999593;28;98203;-78
2022/11/02 00:13:33;;;;;;;16.52;12.82;;;;;;;14.50;65.11;100590.00;4956708;28;96815;-77
2022/11/02 00:16:10;;;;;;;21.10;14.13;;;;;;;14.58;65.11;100602.03;4973160;28;97386;-77
2022/11/02 00:18:37;;;;;;;17.77;13.70;;;;;;;14.54;65.15;100616.28;4974368;28;97467;-77
2022/11/02 00:21:03;;;;;;;18.75;14.02;;;;;;;14.35;65.43;100598.63;4969826;28;97134;-78
2022/11/02 00:23:29;;;;;;;20.08;14.35;;;;;;;14.40;65.02;100622.19;4990029;28;96940;-77
2022/11/02 00:25:55;;;;;;;19.35;14.60;;;;;;;14.34;65.45;100594.28;4956548;28;101787;-78
2022/11/02 00:28:20;;;;;;;24.33;16.77;;;;;;;14.42;65.23;100620.31;4972508;28;101587;-77
2022/11/02 00:30:46;;;;;;;20.73;15.30;;;;;;;14.33;64.94;100602.25;4972464;28;97713;-77
2022/11/02 00:33:11;;;;;;;21.75;15.32;;;;;;;14.38;65.11;100618.75;4972744;28;97155;-77
2022/11/02 00:35:37;;;;;;;19.25;14.07;;;;;;;14.32;64.89;100611.13;4972915;28;101336;-79
2022/11/02 00:38:03;;;;;;;24.83;15.65;;;;;;;14.34;64.64;100631.25;4972701;28;101162;-78
2022/11/02 00:40:29;;;;;;;20.90;14.57;;;;;;;14.25;65.12;100616.66;4956509;28;97465;-77
2022/11/02 00:42:54;;;;;;;17.52;14.32;;;;;;;14.20;64.54;100615.16;4972612;28;97423;-83
2022/11/02 00:45:22;;;;;;;21.17;15.25;;;;;;;14.27;64.81;100627.16;4972452;28;101874;-77
2022/11/02 00:47:49;;;;;;;23.70;15.95;;;;;;;14.25;64.81;100637.78;4972841;28;101399;-77
2022/11/02 00:50:14;;;;;;;23.42;15.93;;;;;;;14.25;64.64;100640.44;4972179;28;97066;-77
2022/11/02 00:52:41;;;;;;;21.23;15.57;;;;;;;14.29;64.88;100648.22;4969699;28;97014;-77
2022/11/02 00:55:08;;;;;;;21.15;14.77;;;;;;;14.24;64.92;100645.78;4975851;28;101886;-77
2022/11/02 00:57:34;;;;;;;19.63;15.13;;;;;;;14.23;64.77;100644.91;4971471;28;101556;-77
2022/11/02 01:00:00;;;;;;;21.17;14.32;;;;;;;14.26;64.72;100649.22;4972348;28;97094;-77
2022/11/02 01:02:26;;;;;;;19.38;15.02;;;;;;;14.12;64.97;100633.97;4939859;28;96967;-78
2022/11/02 01:04:52;;;;;;;21.90;15.25;;;;;;;14.14;64.63;100644.47;4952803;28;101604;-79
2022/11/02 01:07:18;;;;;;;21.58;15.48;;;;;;;14.07;64.37;100629.81;4964861;28;97910;-77
2022/11/02 01:09:43;;;;;;;21.20;15.32;;;;;;;14.10;64.07;100633.16;4972561;28;96796;-77
2022/11/02 01:12:09;;;;;;;18.13;13.95;;;;;;;14.13;64.56;100640.09;4972910;28;97031;-77
2022/11/02 01:14:36;;;;;;;24.75;14.75;;;;;;;14.08;64.31;100642.94;4972687;28;98112;-77
2022/11/02 01:17:03;;;;;;;22.02;15.45;;;;;;;14.02;64.12;100644.06;4972421;28;98021;-77
2022/11/02 01:19:29;;;;;;;21.42;14.75;;;;;;;14.07;64.54;100653.56;4970664;28;96635;-77
2022/11/02 01:21:55;;;;;;;17.75;13.35;;;;;;;14.02;64.57;100643.19;4985268;28;97593;-88
2022/11/02 01:24:21;;;;;;;15.32;11.77;;;;;;;13.87;64.86;100614.81;4981810;28;101429;-77
2022/11/02 01:26:51;;;;;;;17.48;12.15;;;;;;;14.09;64.71;100649.94;4954744;28;101092;-78
2022/11/02 01:29:16;;;;;;;18.13;12.13;;;;;;;14.04;65.03;100636.06;4955205;28;96832;-78
2022/11/02 01:31:42;;;;;;;18.15;12.25;;;;;;;14.06;65.13;100638.66;4989095;28;96858;-77
2022/11/02 01:34:09;;;;;;;20.70;11.55;;;;;;;14.00;65.21;100631.88;4971863;28;101536;-77
2022/11/02 01:36:35;;;;;;;14.07;10.75;;;;;;;14.09;65.22;100641.16;4972881;28;101465;-77
2022/11/02 01:39:00;;;;;;;16.85;11.10;;;;;;;13.94;64.96;100622.44;4968569;28;96731;-79
2022/11/02 01:41:26;;;;;;;18.23;11.23;;;;;;;14.07;64.94;100648.28;4960387;28;96985;-77
2022/11/02 01:43:55;;;;;;;15.07;11.20;;;;;;;14.06;65.25;100651.84;4985958;28;98071;-77
2022/11/02 01:46:46;;;;;;;16.20;10.52;;;;;;;14.06;65.17;100646.59;4968901;28;101421;-77
2022/11/02 01:49:16;;;;;;;16.60;11.65;;;;;;;13.86;65.58;100616.63;4965835;28;97145;-77
2022/11/02 01:51:54;;;;;;;14.85;10.75;;;;;;;13.95;65.30;100634.69;4970690;28;96844;-77
2022/11/02 01:54:23;;;;;;;15.07;10.88;;;;;;;13.99;65.47;100638.03;4987040;28;97507;-80
2022/11/02 01:56:53;;;;;;;15.15;11.32;;;;;;;13.98;65.34;100638.97;4954977;28;97602;-77
2022/11/02 01:59:29;;;;;;;18.83;11.32;;;;;;;13.75;65.37;100611.78;4953312;28;96810;-77
2022/11/02 02:01:54;;;;;;;17.33;10.68;;;;;;;13.90;65.83;100639.28;4991853;28;96887;-77
2022/11/02 02:04:21;;;;;;;14.07;10.07;;;;;;;13.95;65.59;100644.41;4958540;28;101281;-78
2022/11/02 02:06:48;;;;;;;15.00;10.85;;;;;;;13.96;64.79;100633.78;4956152;28;97872;-77
2022/11/02 02:09:14;;;;;;;15.15;11.15;;;;;;;13.88;65.11;100632.41;4958281;28;97173;-77
2022/11/02 02:11:40;;;;;;;14.60;10.77;;;;;;;13.86;64.96;100637.72;4974637;28;97411;-84
2022/11/02 02:14:12;;;;;;;13.80;10.80;;;;;;;13.84;64.65;100646.63;4956368;28;101649;-78
2022/11/02 02:16:47;;;;;;;15.23;10.45;;;;;;;13.86;64.85;100656.19;4959256;28;102250;-77
2022/11/02 02:19:48;;;;;;;14.70;10.80;;;;;;;13.82;64.84;100650.19;4958718;28;96826;-77
2022/11/02 02:22:29;;;;;;;16.42;10.68;;;;;;;13.80;64.84;100649.41;4969818;28;96968;-77
2022/11/02 02:25:20;;;;;;;15.63;10.63;;;;;;;13.81;64.65;100650.25;4970804;28;101270;-78
2022/11/02 02:28:24;;;;;;;17.70;10.00;;;;;;;13.78;64.92;100643.31;4972279;28;98312;-77
2022/11/02 02:30:55;;;;;;;15.20;9.70;;;;;;;13.73;64.99;100649.72;4968969;28;98191;-77
2022/11/02 02:34:05;;;;;;;16.45;10.70;;;;;;;13.67;65.25;100639.41;4988744;28;97244;-77
2022/11/02 02:36:43;;;;;;;19.58;10.65;;;;;;;13.69;64.95;100651.63;4879596;28;101184;-81
2022/11/02 02:39:11;;;;;;;14.48;9.77;;;;;;;13.69;65.11;100653.41;4987611;28;97565;-77
2022/11/02 02:42:10;;;;;;;14.65;10.35;;;;;;;13.56;65.10;100635.47;4970993;28;97104;-78
2022/11/02 02:44:39;;;;;;;13.52;9.52;;;;;;;13.64;65.09;100656.22;4975542;28;96754;-77
2022/11/02 02:47:10;;;;;;;19.60;10.82;;;;;;;13.58;65.54;100643.28;4972560;28;101671;-80
2022/11/02 02:50:03;;;;;;;13.60;9.67;;;;;;;13.62;65.73;100654.59;4971015;28;101754;-80
2022/11/02 02:52:30;;;;;;;16.63;10.55;;;;;;;13.58;65.10;100657.38;4956516;28;96963;-77
2022/11/02 02:54:57;;;;;;;14.48;9.75;;;;;;;13.60;65.36;100657.28;4958697;28;96922;-77
2022/11/02 02:57:25;;;;;;;16.67;9.85;;;;;;;13.56;65.23;100650.44;4990833;28;98170;-77
2022/11/02 02:59:50;;;;;;;14.25;10.05;;;;;;;13.52;65.26;100652.31;4974616;28;101502;-77
2022/11/02 03:02:33;;;;;;;14.00;10.48;;;;;;;13.55;65.24;100651.34;4941757;28;97580;-78
2022/11/02 03:04:58;;;;;;;13.35;10.38;;;;;;;13.56;65.33;100655.72;4971455;28;97846;-77
2022/11/02 03:07:29;;;;;;;14.73;9.95;;;;;;;13.54;65.44;100652.25;4955790;28;97430;-78
2022/11/02 03:10:16;;;;;;;17.00;10.23;;;;;;;13.53;65.33;100651.41;4970793;28;101312;-78
2022/11/02 03:12:49;;;;;;;17.63;9.32;;;;;;;13.53;65.28;100663.75;4953093;28;96820;-77
2022/11/02 03:15:34;;;;;;;14.70;10.45;;;;;;;13.50;65.28;100656.81;4970018;28;96897;-77
2022/11/02 03:18:05;;;;;;;16.20;10.25;;;;;;;13.49;65.13;100641.03;4955027;28;101705;-77
2022/11/02 03:21:13;;;;;;;15.35;10.25;;;;;;;13.50;64.90;100658.59;4958227;28;101131;-77
2022/11/02 03:23:45;;;;;;;14.43;10.32;;;;;;;13.47;64.60;100653.44;4955799;28;96759;-80
2022/11/02 03:26:19;;;;;;;12.18;9.40;;;;;;;13.31;65.35;100637.38;4956736;28;96809;-77
2022/11/02 03:28:58;;;;;;;12.55;9.40;;;;;;;13.40;65.22;100660.72;4956373;28;101167;-77
2022/11/02 03:31:40;;;;;;;14.82;10.70;;;;;;;13.32;65.43;100637.31;4956719;28;101597;-77
2022/11/02 03:34:26;;;;;;;13.18;9.98;;;;;;;13.43;65.55;100660.59;4970166;28;96773;-85
2022/11/02 03:36:59;;;;;;;15.02;10.10;;;;;;;13.42;64.81;100650.13;4972177;28;98931;-78
2022/11/02 03:39:52;;;;;;;16.95;10.80;;;;;;;13.33;65.38;100661.91;4956941;28;101736;-77
2022/11/02 03:42:22;;;;;;;14.90;10.00;;;;;;;13.25;64.99;100658.69;4961934;28;97597;-77
2022/11/02 03:44:55;;;;;;;16.33;10.82;;;;;;;13.26;64.83;100660.41;4970239;28;97138;-77
2022/11/02 03:47:21;;;;;;;21.55;11.07;;;;;;;13.24;64.94;100665.72;4973636;28;97017;-77
2022/11/02 03:49:49;;;;;;;14.63;10.02;;;;;;;13.13;64.65;100649.47;4953861;28;101385;-77
2022/11/02 03:52:20;;;;;;;14.45;9.60;;;;;;;13.18;64.86;100662.47;4972415;28;101626;-77
2022/11/02 03:55:07;;;;;;;16.80;10.68;;;;;;;13.21;64.89;100670.28;4973420;28;97693;-77
2022/11/02 03:57:42;;;;;;;16.40;9.90;;;;;;;13.20;64.69;100673.81;4972015;28;97365;-79
2022/11/02 04:00:18;;;;;;;16.02;9.40;;;;;;;13.22;64.99;100675.47;4956913;28;101397;-78
2022/11/02 04:02:55;;;;;;;16.92;10.13;;;;;;;13.22;65.23;100672.84;4973402;28;101482;-77
2022/11/02 04:05:33;;;;;;;16.65;9.73;;;;;;;13.15;65.14;100652.94;4957144;28;97093;-77
2022/11/02 04:08:21;;;;;;;14.70;10.52;;;;;;;13.26;64.79;100673.59;4958049;28;97182;-77
2022/11/02 04:16:26;;;;;;;16.45;9.63;;;;;;;13.12;64.68;100659.16;4971173;28;97353;-77
2022/11/02 04:21:37;;;;;;;16.95;9.43;;;;;;;13.20;65.56;100677.31;4955545;28;101926;-77
2022/11/02 04:26:48;;;;;;;15.23;9.90;;;;;;;13.18;65.35;100684.44;4969794;28;96947;-77
2022/11/02 04:29:15;;;;;;;16.27;10.52;;;;;;;13.16;65.51;100675.72;4965094;28;97053;-77
2022/11/02 04:31:42;;;;;;;15.85;10.02;;;;;;;13.20;65.33;100671.19;4945134;28;101458;-77
2022/11/02 04:34:07;;;;;;;13.93;9.15;;;;;;;13.14;65.53;100675.75;4950070;28;101500;-77
2022/11/02 04:36:33;;;;;;;15.93;9.27;;;;;;;12.97;65.95;100643.94;4960545;28;97020;-79
2022/11/02 04:38:59;;;;;;;15.40;9.52;;;;;;;13.12;65.69;100669.72;4969571;28;96961;-77
2022/11/02 04:41:41;;;;;;;15.45;9.80;;;;;;;12.99;65.40;100650.00;4966539;28;102304;-77
2022/11/02 04:44:27;;;;;;;18.17;9.95;;;;;;;12.89;65.24;100641.63;4977354;28;99410;-77
2022/11/02 04:46:58;;;;;;;14.80;10.15;;;;;;;13.07;65.38;100674.31;4942289;28;98894;-79
2022/11/02 04:49:26;;;;;;;15.88;10.10;;;;;;;12.95;65.57;100652.84;4972243;28;97061;-77
2022/11/02 04:51:53;;;;;;;15.10;9.80;;;;;;;13.08;65.33;100673.38;4955829;28;101577;-78
2022/11/02 04:54:19;;;;;;;13.75;9.93;;;;;;;13.05;65.80;100672.63;4956071;28;101297;-77
2022/11/02 04:56:49;;;;;;;21.50;10.27;;;;;;;13.00;65.58;100666.69;4972813;28;96995;-77
2022/11/02 04:59:15;;;;;;;15.05;9.68;;;;;;;13.00;65.99;100667.56;4972514;28;97246;-84
2022/11/02 05:01:41;;;;;;;15.57;10.63;;;;;;;12.95;65.55;100672.13;4956454;28;101543;-79
2022/11/02 05:04:09;;;;;;;15.57;10.60;;;;;;;12.99;65.45;100678.16;4976141;28;96915;-77
2022/11/02 05:06:36;;;;;;;19.15;10.93;;;;;;;12.98;65.62;100668.53;4971751;28;96795;-78
2022/11/02 05:09:02;;;;;;;14.63;10.32;;;;;;;12.96;65.95;100680.91;4952939;28;97072;-77
2022/11/02 05:11:28;;;;;;;14.43;10.30;;;;;;;12.93;65.61;100681.88;4965559;28;101581;-77
2022/11/02 05:13:54;;;;;;;14.30;10.23;;;;;;;12.91;66.13;100675.78;4956152;28;101171;-77
2022/11/02 05:16:20;;;;;;;16.08;9.65;;;;;;;12.83;66.02;100684.00;4952564;28;96745;-77
2022/11/02 05:18:48;;;;;;;17.40;10.27;;;;;;;12.78;65.91;100679.81;4962861;28;97012;-77
2022/11/02 05:21:16;;;;;;;15.57;9.90;;;;;;;12.73;65.86;100679.97;4972804;28;101498;-78
2022/11/02 05:23:41;;;;;;;13.68;9.05;;;;;;;12.76;65.82;100673.75;4955970;28;97893;-77
2022/11/02 05:26:10;;;;;;;17.55;10.32;;;;;;;12.69;65.57;100663.44;4956110;28;97156;-77
2022/11/02 05:28:39;;;;;;;15.27;10.00;;;;;;;12.75;65.75;100686.06;4956542;28;96882;-78
2022/11/02 05:31:05;;;;;;;17.33;10.20;;;;;;;12.66;65.76;100674.09;4956081;28;101323;-77
2022/11/02 05:33:33;;;;;;;19.95;10.27;;;;;;;12.71;65.41;100687.06;4955799;28;101902;-77
2022/11/02 05:36:05;;;;;;;15.93;9.88;;;;;;;12.58;65.78;100670.88;4959532;28;98111;-77
2022/11/02 05:38:33;;;;;;;17.90;10.10;;;;;;;12.67;65.50;100691.59;4975159;28;97797;-77
2022/11/02 05:41:00;;;;;;;18.08;10.73;;;;;;;12.66;65.51;100692.53;4959482;28;101676;-77
2022/11/02 05:43:29;;;;;;;17.65;10.30;;;;;;;12.68;65.20;100700.34;4971020;28;101593;-78
2022/11/02 05:46:00;;;;;;;16.83;10.00;;;;;;;12.66;65.33;100695.16;4969447;28;97067;-78
2022/11/02 05:48:28;;;;;;;16.45;10.27;;;;;;;12.66;65.24;100704.84;4987377;28;97295;-81
2022/11/02 05:50:55;;;;;;;18.38;10.80;;;;;;;12.67;65.12;100702.13;4958287;28;101224;-78
2022/11/02 05:53:21;;;;;;;21.55;11.05;;;;;;;12.55;65.64;100680.66;4936222;28;100587;-77
2022/11/02 05:55:47;;;;;;;24.60;10.63;;;;;;;12.65;65.28;100700.47;4958686;28;96749;-77
2022/11/02 05:58:12;;;;;;;20.33;10.95;;;;;;;12.60;64.71;100697.16;4979500;28;97293;-79
2022/11/02 06:00:39;;;;;;;20.35;10.77;;;;;;;12.67;65.03;100712.66;4974025;28;97940;-78
2022/11/02 06:03:06;;;;;;;18.77;11.40;;;;;;;12.63;65.36;100702.31;4969031;28;97880;-77
2022/11/02 06:05:31;;;;;;;20.75;10.18;;;;;;;12.49;64.98;100678.25;4956650;28;96778;-77
2022/11/02 06:08:01;;;;;;;18.35;10.23;;;;;;;12.64;64.95;100709.28;4973353;28;97488;-79
2022/11/02 06:10:28;;;;;;;20.00;10.77;;;;;;;12.66;65.25;100708.34;4991046;28;98530;-79
2022/11/02 06:12:58;;;;;;;19.70;10.40;;;;;;;12.74;65.75;100715.97;4973211;28;101441;-78
2022/11/02 06:15:25;;;;;;;19.02;10.20;;;;;;;12.77;65.14;100721.13;4956103;28;99032;-78
2022/11/02 06:17:50;;;;;;;15.88;10.00;;;;;;;12.77;65.16;100714.97;4967100;28;96889;-77
2022/11/02 06:20:16;;;;;;;20.50;10.40;;;;;;;12.78;64.81;100712.28;4972909;28;97485;-77
2022/11/02 06:22:42;;;;;;;16.30;10.20;;;;;;;12.69;64.68;100697.69;4964718;28;101268;-81
2022/11/02 06:25:08;;;;;;;23.85;10.45;;;;;;;12.82;65.15;100719.16;4974518;28;97277;-77
2022/11/02 06:27:34;;;;;;;19.60;10.07;;;;;;;12.85;65.45;100726.94;4986034;28;97164;-79
2022/11/02 06:30:00;;;;;;;15.43;10.02;;;;;;;12.89;65.32;100727.72;4957149;28;101623;-77
2022/11/02 06:32:26;;;;;;;19.23;10.40;;;;;;;12.92;65.01;100730.22;4952061;28;101715;-79
2022/11/02 06:34:51;;;;;;;17.67;10.35;;;;;;;12.89;65.85;100725.94;4955438;28;97689;-78
2022/11/02 06:37:17;;;;;;;16.38;11.10;;;;;;;13.01;65.56;100739.56;4980363;28;97298;-83
2022/11/02 06:39:42;;;;;;;18.00;10.65;;;;;;;12.98;66.02;100739.69;4964411;28;98745;-79
2022/11/02 06:42:08;;;;;;;15.70;11.00;;;;;;;13.04;66.14;100736.81;4968782;28;97951;-78
2022/11/02 06:44:33;;;;;;;16.13;11.75;;;;;;;13.06;65.99;100742.88;4953109;28;96959;-77
2022/11/02 06:46:59;;;;;;;16.05;10.88;;;;;;;12.99;66.51;100722.94;4952841;28;97246;-79
2022/11/02 06:49:25;;;;;;;18.10;10.52;;;;;;;13.16;66.15;100738.97;4950284;28;97942;-78
2022/11/02 06:51:50;;;;;;;15.45;10.57;;;;;;;13.19;66.25;100740.63;4968385;28;100959;-78
2022/11/02 06:54:16;;;;;;;20.23;11.75;;;;;;;13.17;65.31;100724.88;4953227;28;96961;-77
2022/11/02 06:56:42;;;;;;;15.18;10.20;;;;;;;13.35;65.46;100741.78;4953517;28;97095;-78
2022/11/02 06:59:07;;;;;;;17.85;10.02;;;;;;;13.51;65.71;100750.81;4947052;28;101565;-77
2022/11/02 07:01:33;;;;;;;16.05;10.20;;;;;;;13.80;65.03;100746.16;4968860;28;97560;-77
2022/11/02 07:04:00;;;;;;;13.18;9.43;;;;;;;14.04;64.69;100736.38;4967762;28;96860;-78
2022/11/02 07:06:25;;;;;;;16.35;10.20;;;;;;;14.33;63.93;100745.69;4948631;28;97732;-78
2022/11/02 07:08:51;;;;;;;15.20;10.25;;;;;;;14.50;63.47;100750.25;4950563;28;98602;-79
2022/11/02 07:11:17;;;;;;;14.73;9.27;;;;;;;14.56;62.71;100731.53;4949907;28;97710;-74
2022/11/02 07:13:43;;;;;;;15.90;9.52;;;;;;;14.92;62.18;100755.47;4966478;28;97490;-77
2022/11/02 07:16:08;;;;;;;14.20;9.55;;;;;;;15.02;61.47;100736.56;4950522;28;97299;-74
2022/11/02 07:18:34;;;;;;;18.58;10.20;;;;;;;15.37;60.80;100754.28;4949680;28;97357;-75
2022/11/02 07:21:00;;;;;;;21.40;9.18;;;;;;;15.52;60.12;100725.38;4950181;28;101489;-74
2022/11/02 07:23:26;;;;;;;14.55;8.30;;;;;;;15.97;59.40;100756.72;4935425;28;98691;-74
2022/11/02 07:25:51;;;;;;;15.02;9.40;;;;;;;16.21;58.80;100756.44;4942482;28;97316;-75
2022/11/02 07:28:17;;;;;;;12.38;9.00;;;;;;;16.24;58.57;100730.63;4952188;28;97637;-75
2022/11/02 07:30:43;;;;;;;11.40;8.60;;;;;;;16.45;57.90;100754.31;4950306;28;98069;-74
2022/11/02 07:33:09;;;;;;;12.80;8.70;;;;;;;16.45;57.77;100749.84;4963571;28;98231;-73
2022/11/02 07:35:34;;;;;;;14.43;8.38;;;;;;;16.50;57.72;100754.94;4949609;28;96881;-80
2022/11/02 07:38:03;;;;;;;15.30;9.23;;;;;;;16.62;57.01;100749.00;4934881;28;101466;-83
2022/11/02 07:40:29;;;;;;;14.30;8.70;;;;;;;16.77;56.41;100734.09;4942946;28;101350;-83
2022/11/02 07:42:55;;;;;;;13.70;8.30;;;;;;;16.83;56.53;100747.03;4952546;28;97847;-84
2022/11/02 07:45:31;;;;;;;16.20;9.55;;;;;;;16.81;56.23;100743.59;4953021;28;97212;-81
2022/11/02 07:47:56;;;;;;;12.95;8.48;;;;;;;16.95;56.53;100751.66;4961281;28;101578;-83
2022/11/02 07:50:23;;;;;;;13.70;8.63;;;;;;;17.08;55.79;100737.75;4953992;28;101210;-82
2022/11/02 07:52:51;;;;;;;12.93;9.02;;;;;;;17.47;55.41;100755.06;4953939;28;97036;-82
2022/11/02 07:55:25;;;;;;;13.57;9.38;;;;;;;17.49;54.94;100732.81;4962986;28;97273;-81
2022/11/02 07:57:56;;;;;;;14.23;9.40;;;;;;;17.80;54.35;100739.94;4955569;28;101822;-81
2022/11/02 08:00:24;;;;;;;15.10;9.25;;;;;;;18.05;54.12;100726.06;4969128;28;97593;-83
2022/11/02 08:02:54;;;;;;;13.32;8.40;;;;;;;18.32;53.51;100730.69;4948608;28;97425;-83
2022/11/02 08:05:19;;;;;;;12.85;8.95;;;;;;;18.55;53.21;100742.59;4944847;28;97000;-82
2022/11/02 08:07:45;;;;;;;14.15;9.30;;;;;;;18.79;52.81;100742.91;4936565;28;97581;-83
2022/11/02 08:10:10;;;;;;;15.68;9.77;;;;;;;18.93;52.35;100715.47;4936861;28;102003;-83
2022/11/02 08:12:36;;;;;;;14.43;9.02;;;;;;;19.23;51.56;100723.34;4936676;28;97065;-82
2022/11/02 08:15:02;;;;;;;14.38;9.48;;;;;;;19.47;51.01;100726.22;4953537;28;96876;-81
2022/11/02 08:17:27;;;;;;;15.68;10.13;;;;;;;19.54;50.32;100705.38;4958701;28;101373;-81
2022/11/02 08:19:55;;;;;;;13.95;9.77;;;;;;;19.84;49.78;100713.19;4968811;28;97388;-82
2022/11/02 08:22:20;;;;;;;13.50;8.63;;;;;;;20.12;49.33;100728.16;4964833;28;97030;-81
2022/11/02 08:24:46;;;;;;;12.35;8.20;;;;;;;20.31;49.00;100717.13;4939060;28;97430;-81
2022/11/02 08:27:12;;;;;;;19.02;8.25;;;;;;;20.58;48.46;100720.56;4972844;28;97583;-80
2022/11/02 08:29:37;;;;;;;11.18;7.65;;;;;;;20.80;47.77;100719.94;4952600;28;97579;-80
2022/11/02 08:32:03;;;;;;;14.02;7.45;;;;;;;21.02;46.84;100727.25;4952407;28;96857;-81
2022/11/02 08:34:28;;;;;;;12.80;7.10;;;;;;;21.27;46.24;100730.00;4966509;28;96980;-83
2022/11/02 08:36:54;;;;;;;8.82;6.00;;;;;;;21.39;45.39;100727.31;4980329;28;97649;-86
2022/11/02 08:39:19;;;;;;;9.95;6.78;;;;;;;21.63;44.98;100723.78;4950510;28;101097;-80
2022/11/02 08:41:45;;;;;;;10.88;7.15;;;;;;;21.87;44.27;100718.44;4942045;28;97705;-81
2022/11/02 08:44:10;;;;;;;10.10;6.45;;;;;;;21.99;43.52;100714.88;4955176;28;98179;-83
2022/11/02 08:46:36;;;;;;;8.45;5.65;;;;;;;22.33;43.03;100726.53;4972285;28;102222;-82
2022/11/02 08:49:03;;;;;;;9.93;5.57;;;;;;;22.44;42.29;100706.97;4957764;28;101433;-81
2022/11/02 08:51:28;;;;;;;10.23;6.45;;;;;;;22.76;41.60;100715.16;4934753;28;97749;-82
2022/11/02 08:53:54;;;;;;;10.73;6.25;;;;;;;22.98;41.33;100722.38;4950480;28;97808;-80
2022/11/02 08:56:19;;;;;;;9.98;5.57;;;;;;;23.16;41.17;100716.53;4964088;28;98042;-79
2022/11/02 08:58:45;;;;;;;11.63;5.32;;;;;;;23.66;43.24;100723.09;4962412;28;101838;-82
2022/11/02 09:01:10;;;;;;;9.20;5.38;;;;;;;23.98;41.42;100722.28;4997877;28;97318;-82
2022/11/02 09:03:36;;;;;;;6.80;4.88;;;;;;;24.03;39.89;100712.03;4936185;28;97208;-84
2022/11/02 09:06:02;;;;;;;7.43;4.75;;;;;;;24.17;39.26;100702.78;4942578;28;101779;-81
2022/11/02 09:08:27;;;;;;;8.20;4.75;;;;;;;24.19;38.29;100706.19;4969033;28;100363;-81
2022/11/02 09:10:57;;;;;;;8.38;4.05;;;;;;;24.32;37.80;100709.53;4943692;28;96889;-81
2022/11/02 09:13:24;;;;;;;7.03;4.43;;;;;;;24.55;37.90;100712.06;4956756;28;97424;-80
2022/11/02 09:15:52;;;;;;;6.82;3.97;;;;;;;24.75;37.32;100700.47;4935754;28;101250;-81
2022/11/02 09:18:17;;;;;;;6.10;3.63;;;;;;;24.88;36.71;100694.88;4978921;28;100913;-83
2022/11/02 09:20:44;;;;;;;7.15;4.10;;;;;;;24.93;36.75;100702.50;4971012;28;96914;-81
2022/11/02 09:23:09;;;;;;;6.78;3.53;;;;;;;24.98;36.18;100690.38;4970876;28;97031;-83
2022/11/02 09:25:35;;;;;;;6.47;3.50;;;;;;;25.07;35.92;100670.78;4960322;28;101818;-81
2022/11/02 09:28:01;;;;;;;7.38;3.78;;;;;;;25.34;35.53;100679.19;4980177;28;101628;-81
2022/11/02 09:30:30;;;;;;;5.97;3.90;;;;;;;25.49;35.60;100684.03;4963193;28;96720;-78
2022/11/02 09:33:03;;;;;;;8.85;3.80;;;;;;;25.59;35.03;100702.84;4960392;28;97061;-85
2022/11/02 09:35:31;;;;;;;9.32;4.15;;;;;;;25.76;35.41;100703.97;4962918;28;101780;-82
2022/11/02 09:37:57;;;;;;;8.70;3.78;;;;;;;25.86;35.44;100704.00;4964489;28;101579;-85
2022/11/02 09:40:44;;;;;;;9.43;3.63;;;;;;;25.93;35.24;100700.63;4974929;28;96889;-85
2022/11/02 09:43:18;;;;;;;7.68;4.35;;;;;;;25.78;34.76;100703.84;4973269;28;97556;-80
2022/11/02 09:45:52;;;;;;;8.15;3.92;;;;;;;25.65;35.27;100696.91;4963411;28;101840;-79
2022/11/02 09:48:27;;;;;;;7.20;3.70;;;;;;;25.45;35.59;100689.81;4988753;28;99222;-79
2022/11/02 09:51:08;;;;;;;6.47;4.10;;;;;;;25.20;35.84;100704.63;4984595;28;97460;-81
2022/11/02 09:53:51;;;;;;;5.60;3.35;;;;;;;24.99;35.89;100710.03;4985503;28;97465;-79
2022/11/02 09:56:20;;;;;;;5.35;3.22;;;;;;;24.85;35.96;100687.94;4974825;28;101361;-81
2022/11/02 09:59:11;;;;;;;7.82;3.55;;;;;;;24.87;35.35;100708.41;4968692;28;101752;-80
2022/11/02 10:02:04;;;;;;;6.20;3.25;;;;;;;24.78;35.60;100696.66;4962457;28;97203;-80
2022/11/02 10:04:48;;;;;;;4.60;2.45;;;;;;;24.67;35.20;100704.78;4959102;28;96850;-80
2022/11/02 10:07:29;;;;;;;3.83;2.40;;;;;;;24.45;35.61;100706.66;4974276;28;101194;-81
2022/11/02 10:09:56;;;;;;;5.45;2.65;;;;;;;24.30;36.03;100705.28;4978138;28;97998;-80
2022/11/02 10:12:36;;;;;;;6.38;2.25;;;;;;;24.05;35.15;100696.63;4943742;28;97545;-79
2022/11/02 10:15:08;;;;;;;5.60;2.20;;;;;;;23.77;35.70;100686.56;4957578;28;97272;-79
2022/11/02 10:17:36;;;;;;;5.15;2.80;;;;;;;23.68;35.88;100688.16;4960916;28;98139;-80
2022/11/02 10:20:07;;;;;;;6.82;2.67;;;;;;;23.64;36.67;100698.25;4960741;28;102013;-80
2022/11/02 10:22:33;;;;;;;;;;;;;;;23.39;36.28;100707.47;4931436;28;96810;-80
2022/11/02 10:25:04;;;;;;;6.15;2.38;;;;;;;23.25;36.30;100700.56;4983050;28;96882;-80
2022/11/02 10:27:35;;;;;;;5.45;1.98;;;;;;;23.02;36.44;100704.25;4968326;28;98057;-83
2022/11/02 10:30:02;;;;;;;;;;;;;;;22.80;36.66;100711.25;4956636;28;100299;-80
2022/11/02 10:32:30;;;;;;;6.45;2.47;;;;;;;22.64;37.08;100691.19;4978016;28;96876;-82
2022/11/02 10:34:56;;;;;;;9.40;3.00;;;;;;;22.67;37.75;100717.72;4964914;28;97426;-80
2022/11/02 10:37:52;;;;;;;7.63;2.70;;;;;;;22.56;38.08;100713.19;4966998;28;98050;-82
2022/11/02 10:40:49;;;;;;;5.57;2.40;;;;;;;22.30;37.82;100715.22;4964124;28;101187;-81
2022/11/02 10:43:21;;;;;;;6.70;2.45;;;;;;;22.18;38.47;100708.13;4968234;28;97178;-82
2022/11/02 10:46:15;;;;;;;7.78;2.53;;;;;;;21.99;38.74;100700.63;4948320;28;96800;-81
2022/11/02 10:49:08;;;;;;;5.72;2.95;;;;;;;21.86;38.76;100700.72;4951914;28;101541;-81
2022/11/02 10:51:33;;;;;;;5.28;2.80;;;;;;;21.84;39.29;100702.63;4951820;28;102333;-82
2022/11/02 10:53:59;;;;;;;6.55;2.45;;;;;;;21.78;39.48;100711.97;4972010;28;97094;-80
2022/11/02 10:56:32;;;;;;;11.32;3.40;;;;;;;21.65;39.61;100720.06;4955880;28;96930;-80
2022/11/02 10:58:57;;;;;;;5.50;2.70;;;;;;;21.51;39.87;100706.88;4960958;28;101149;-80
2022/11/02 11:01:23;;;;;;;5.35;2.30;;;;;;;21.38;40.35;100698.03;4988332;28;98498;-82
2022/11/02 11:03:58;;;;;;;7.18;2.60;;;;;;;21.32;40.23;100701.13;4978633;28;97358;-82
2022/11/02 11:06:28;;;;;;;7.63;2.45;;;;;;;21.28;40.80;100705.00;4990672;28;97300;-81
2022/11/02 11:09:02;;;;;;;6.25;3.10;;;;;;;21.13;40.78;100702.47;4956429;28;101887;-81
2022/11/02 11:11:36;;;;;;;4.85;2.50;;;;;;;20.98;41.54;100704.44;4958630;28;97900;-80
2022/11/02 11:14:06;;;;;;;7.32;2.10;;;;;;;20.96;41.04;100698.34;4958626;28;97190;-81
2022/11/02 11:16:41;;;;;;;6.93;2.83;;;;;;;20.89;41.86;100698.91;4957316;28;97162;-85
2022/11/02 11:19:35;;;;;;;3.88;2.33;;;;;;;20.74;41.35;100699.03;4968669;28;101405;-82
2022/11/02 11:22:02;;;;;;;8.52;2.80;;;;;;;20.67;41.64;100697.75;4958508;28;101231;-82
2022/11/02 11:24:34;;;;;;;6.55;2.28;;;;;;;20.64;41.71;100697.09;4957288;28;97998;-82
2022/11/02 11:27:11;;;;;;;10.15;2.97;;;;;;;20.53;41.68;100688.03;4965468;28;97073;-82
2022/11/02 11:29:45;;;;;;;7.88;2.97;;;;;;;20.42;41.70;100681.72;4959664;28;101026;-82
2022/11/02 11:32:26;;;;;;;6.28;2.83;;;;;;;20.34;41.85;100683.09;4967020;28;97632;-82
2022/11/02 11:35:06;;;;;;;6.93;2.92;;;;;;;20.15;42.11;100665.81;4973363;28;96931;-81
2022/11/02 11:37:32;;;;;;;5.93;2.45;;;;;;;20.19;42.08;100670.84;4971692;28;97086;-87